sensor_id;sensor_type;location;lat;lon;timestamp;pressure;altitude;pressure_sealevel;temperature;humidity
43480;BME280;29067;35.492;-97.520;2022-07-23T00:02:01;97031.22;;;34.54;24.39
43480;BME280;29067;35.492;-97.520;2022-07-23T00:04:30;97034.42;;;34.90;23.79
43480;BME280;29067;35.492;-97.520;2022-07-23T00:06:59;97038.64;;;34.81;23.77
43480;BME280;29067;35.492;-97.520;2022-07-23T00:09:27;97041.02;;;33.61;24.19
43480;BME280;29067;35.492;-97.520;2022-07-23T00:11:55;97043.85;;;34.80;23.73
43480;BME280;29067;35.492;-97.520;2022-07-23T00:14:22;97050.20;;;34.50;23.81
43480;BME280;29067;35.492;-97.520;2022-07-23T00:16:51;97049.00;;;34.42;23.96
43480;BME280;29067;35.492;-97.520;2022-07-23T00:19:19;97053.73;;;34.66;23.65
43480;BME280;29067;35.492;-97.520;2022-07-23T00:21:46;97060.17;;;35.12;23.67
43480;BME280;29067;35.492;-97.520;2022-07-23T00:24:14;97058.18;;;35.14;24.01
43480;BME280;29067;35.492;-97.520;2022-07-23T00:26:42;97059.78;;;34.53;23.85
43480;BME280;29067;35.492;-97.520;2022-07-23T00:29:10;97061.51;;;34.33;23.95
43480;BME280;29067;35.492;-97.520;2022-07-23T00:31:38;97063.59;;;35.38;23.58
43480;BME280;29067;35.492;-97.520;2022-07-23T00:34:06;97068.98;;;35.06;23.80
43480;BME280;29067;35.492;-97.520;2022-07-23T00:36:34;97068.45;;;34.80;23.77
43480;BME280;29067;35.492;-97.520;2022-07-23T00:39:03;97072.30;;;35.40;23.22
43480;BME280;29067;35.492;-97.520;2022-07-23T00:41:31;97092.40;;;33.83;24.15
43480;BME280;29067;35.492;-97.520;2022-07-23T00:44:15;97134.62;;;30.44;31.10
43480;BME280;29067;35.492;-97.520;2022-07-23T00:46:46;97141.59;;;31.00;33.71
43480;BME280;29067;35.492;-97.520;2022-07-23T00:49:15;97156.66;;;30.24;34.97
43480;BME280;29067;35.492;-97.520;2022-07-23T00:51:43;97176.69;;;29.54;37.39
43480;BME280;29067;35.492;-97.520;2022-07-23T00:54:11;97176.70;;;28.39;39.25
43480;BME280;29067;35.492;-97.520;2022-07-23T00:56:40;97179.95;;;28.78;40.17
43480;BME280;29067;35.492;-97.520;2022-07-23T00:59:09;97185.74;;;30.62;38.59
43480;BME280;29067;35.492;-97.520;2022-07-23T01:01:37;97201.45;;;27.59;43.07
43480;BME280;29067;35.492;-97.520;2022-07-23T01:04:05;97194.30;;;28.70;42.59
43480;BME280;29067;35.492;-97.520;2022-07-23T01:06:36;97188.87;;;27.49;46.31
43480;BME280;29067;35.492;-97.520;2022-07-23T01:09:05;97187.82;;;27.34;48.04
43480;BME280;29067;35.492;-97.520;2022-07-23T01:11:35;97196.66;;;27.44;47.71
43480;BME280;29067;35.492;-97.520;2022-07-23T01:14:09;97189.86;;;27.21;48.21
43480;BME280;29067;35.492;-97.520;2022-07-23T01:16:38;97189.40;;;27.52;48.11
43480;BME280;29067;35.492;-97.520;2022-07-23T01:19:06;97190.10;;;26.86;50.05
43480;BME280;29067;35.492;-97.520;2022-07-23T01:21:36;97185.36;;;27.03;50.92
43480;BME280;29067;35.492;-97.520;2022-07-23T01:24:06;97178.98;;;28.59;48.34
43480;BME280;29067;35.492;-97.520;2022-07-23T01:26:34;97179.39;;;28.20;48.38
43480;BME280;29067;35.492;-97.520;2022-07-23T01:29:03;97175.15;;;27.54;50.09
43480;BME280;29067;35.492;-97.520;2022-07-23T01:31:31;97170.96;;;27.97;49.59
43480;BME280;29067;35.492;-97.520;2022-07-23T01:33:59;97167.70;;;27.00;50.26
43480;BME280;29067;35.492;-97.520;2022-07-23T01:36:28;97169.52;;;27.28;50.75
43480;BME280;29067;35.492;-97.520;2022-07-23T01:38:56;97170.18;;;26.47;52.35
43480;BME280;29067;35.492;-97.520;2022-07-23T01:41:24;97161.08;;;27.01;51.69
43480;BME280;29067;35.492;-97.520;2022-07-23T01:43:52;97160.76;;;26.19;53.54
43480;BME280;29067;35.492;-97.520;2022-07-23T01:46:19;97154.91;;;26.48;53.18
43480;BME280;29067;35.492;-97.520;2022-07-23T01:48:47;97158.60;;;26.10;53.64
43480;BME280;29067;35.492;-97.520;2022-07-23T01:51:15;97147.85;;;27.63;50.75
43480;BME280;29067;35.492;-97.520;2022-07-23T01:53:43;97148.89;;;28.30;49.58
43480;BME280;29067;35.492;-97.520;2022-07-23T01:56:11;97154.37;;;26.53;51.65
43480;BME280;29067;35.492;-97.520;2022-07-23T01:58:38;97153.72;;;27.70;49.86
43480;BME280;29067;35.492;-97.520;2022-07-23T02:01:06;97151.43;;;27.71;49.99
43480;BME280;29067;35.492;-97.520;2022-07-23T02:03:34;97150.17;;;26.63;52.67
43480;BME280;29067;35.492;-97.520;2022-07-23T02:06:01;97149.91;;;26.52;53.22
43480;BME280;29067;35.492;-97.520;2022-07-23T02:08:30;97144.96;;;27.63;51.27
43480;BME280;29067;35.492;-97.520;2022-07-23T02:10:58;97140.42;;;28.56;48.52
43480;BME280;29067;35.492;-97.520;2022-07-23T02:13:26;97142.13;;;26.75;50.47
43480;BME280;29067;35.492;-97.520;2022-07-23T02:15:54;97146.42;;;26.94;51.88
43480;BME280;29067;35.492;-97.520;2022-07-23T02:18:21;97141.52;;;26.99;51.68
43480;BME280;29067;35.492;-97.520;2022-07-23T02:20:49;97142.08;;;26.58;52.66
43480;BME280;29067;35.492;-97.520;2022-07-23T02:23:16;97140.50;;;26.71;52.55
43480;BME280;29067;35.492;-97.520;2022-07-23T02:25:44;97134.72;;;27.48;50.22
43480;BME280;29067;35.492;-97.520;2022-07-23T02:28:12;97130.51;;;26.69;50.73
43480;BME280;29067;35.492;-97.520;2022-07-23T02:30:39;97128.49;;;26.93;50.05
43480;BME280;29067;35.492;-97.520;2022-07-23T02:33:07;97135.63;;;27.89;50.47
43480;BME280;29067;35.492;-97.520;2022-07-23T02:35:34;97145.15;;;26.95;50.65
43480;BME280;29067;35.492;-97.520;2022-07-23T02:38:03;97149.94;;;27.68;48.91
43480;BME280;29067;35.492;-97.520;2022-07-23T02:40:31;97153.80;;;28.35;48.34
43480;BME280;29067;35.492;-97.520;2022-07-23T02:42:59;97157.45;;;28.32;48.63
43480;BME280;29067;35.492;-97.520;2022-07-23T02:45:27;97157.43;;;27.48;49.85
43480;BME280;29067;35.492;-97.520;2022-07-23T02:47:55;97159.18;;;26.92;51.43
43480;BME280;29067;35.492;-97.520;2022-07-23T02:50:23;97167.80;;;26.40;52.44
43480;BME280;29067;35.492;-97.520;2022-07-23T02:52:50;97174.56;;;26.36;52.66
43480;BME280;29067;35.492;-97.520;2022-07-23T02:55:18;97168.68;;;27.38;51.06
43480;BME280;29067;35.492;-97.520;2022-07-23T02:57:46;97165.88;;;27.17;50.54
43480;BME280;29067;35.492;-97.520;2022-07-23T03:00:14;97165.95;;;27.29;48.91
43480;BME280;29067;35.492;-97.520;2022-07-23T03:02:42;97168.00;;;29.13;47.80
43480;BME280;29067;35.492;-97.520;2022-07-23T03:05:10;97173.08;;;28.22;48.04
43480;BME280;29067;35.492;-97.520;2022-07-23T03:07:38;97170.42;;;27.27;49.58
43480;BME280;29067;35.492;-97.520;2022-07-23T03:10:07;97178.30;;;26.78;51.08
43480;BME280;29067;35.492;-97.520;2022-07-23T03:12:34;97184.28;;;26.30;52.39
43480;BME280;29067;35.492;-97.520;2022-07-23T03:15:03;97177.69;;;27.92;49.71
43480;BME280;29067;35.492;-97.520;2022-07-23T03:17:31;97180.27;;;28.34;48.82
43480;BME280;29067;35.492;-97.520;2022-07-23T03:19:58;97181.25;;;27.31;50.32
43480;BME280;29067;35.492;-97.520;2022-07-23T03:22:26;97189.64;;;26.62;51.87
43480;BME280;29067;35.492;-97.520;2022-07-23T03:24:53;97191.62;;;26.89;51.37
43480;BME280;29067;35.492;-97.520;2022-07-23T03:27:22;97201.64;;;25.14;54.69
43480;BME280;29067;35.492;-97.520;2022-07-23T03:29:50;97200.58;;;27.12;51.94
43480;BME280;29067;35.492;-97.520;2022-07-23T03:32:18;97205.38;;;26.50;52.30
43480;BME280;29067;35.492;-97.520;2022-07-23T03:34:46;97205.51;;;27.74;50.09
43480;BME280;29067;35.492;-97.520;2022-07-23T03:37:14;97215.50;;;26.28;52.33
43480;BME280;29067;35.492;-97.520;2022-07-23T03:39:43;97214.83;;;27.69;50.04
43480;BME280;29067;35.492;-97.520;2022-07-23T03:42:11;97215.29;;;27.39;49.72
43480;BME280;29067;35.492;-97.520;2022-07-23T03:44:38;97217.22;;;28.77;47.64
43480;BME280;29067;35.492;-97.520;2022-07-23T03:47:06;97222.05;;;27.30;48.81
43480;BME280;29067;35.492;-97.520;2022-07-23T03:49:35;97221.95;;;27.01;50.04
43480;BME280;29067;35.492;-97.520;2022-07-23T03:52:03;97222.18;;;27.32;50.36
43480;BME280;29067;35.492;-97.520;2022-07-23T03:54:31;97216.30;;;27.02;50.27
43480;BME280;29067;35.492;-97.520;2022-07-23T03:56:58;97212.70;;;27.41;49.47
43480;BME280;29067;35.492;-97.520;2022-07-23T03:59:26;97213.88;;;27.83;48.90
43480;BME280;29067;35.492;-97.520;2022-07-23T04:01:53;97210.52;;;28.63;47.52
43480;BME280;29067;35.492;-97.520;2022-07-23T04:04:21;97210.70;;;27.33;48.93
43480;BME280;29067;35.492;-97.520;2022-07-23T04:06:48;97215.53;;;27.61;48.18
43480;BME280;29067;35.492;-97.520;2022-07-23T04:09:16;97217.61;;;27.85;47.88
43480;BME280;29067;35.492;-97.520;2022-07-23T04:11:44;97220.76;;;27.56;48.33
43480;BME280;29067;35.492;-97.520;2022-07-23T04:14:12;97220.19;;;26.92;49.43
43480;BME280;29067;35.492;-97.520;2022-07-23T04:16:40;97221.32;;;26.81;50.59
43480;BME280;29067;35.492;-97.520;2022-07-23T04:19:08;97219.49;;;27.05;49.57
43480;BME280;29067;35.492;-97.520;2022-07-23T04:21:35;97219.48;;;27.50;48.84
43480;BME280;29067;35.492;-97.520;2022-07-23T04:24:03;97226.32;;;28.39;48.05
43480;BME280;29067;35.492;-97.520;2022-07-23T04:26:31;97230.31;;;27.78;49.88
43480;BME280;29067;35.492;-97.520;2022-07-23T04:28:59;97237.35;;;26.63;52.37
43480;BME280;29067;35.492;-97.520;2022-07-23T04:31:26;97237.82;;;27.02;52.74
43480;BME280;29067;35.492;-97.520;2022-07-23T04:33:54;97236.88;;;26.88;52.70
43480;BME280;29067;35.492;-97.520;2022-07-23T04:36:21;97242.09;;;26.94;52.26
43480;BME280;29067;35.492;-97.520;2022-07-23T04:38:49;97245.07;;;26.99;51.61
43480;BME280;29067;35.492;-97.520;2022-07-23T04:41:17;97241.87;;;27.74;50.56
43480;BME280;29067;35.492;-97.520;2022-07-23T04:43:45;97244.31;;;26.63;52.15
43480;BME280;29067;35.492;-97.520;2022-07-23T04:46:13;97243.09;;;26.18;53.50
43480;BME280;29067;35.492;-97.520;2022-07-23T04:48:41;97240.12;;;28.13;49.72
43480;BME280;29067;35.492;-97.520;2022-07-23T04:51:09;97245.14;;;27.54;50.46
43480;BME280;29067;35.492;-97.520;2022-07-23T04:53:37;97242.11;;;28.59;48.81
43480;BME280;29067;35.492;-97.520;2022-07-23T04:56:06;97251.67;;;26.18;52.52
43480;BME280;29067;35.492;-97.520;2022-07-23T04:58:34;97248.24;;;27.88;50.00
43480;BME280;29067;35.492;-97.520;2022-07-23T05:01:01;97251.23;;;26.97;51.16
43480;BME280;29067;35.492;-97.520;2022-07-23T05:03:29;97251.70;;;27.54;50.13
43480;BME280;29067;35.492;-97.520;2022-07-23T05:05:57;97249.52;;;27.55;50.26
43480;BME280;29067;35.492;-97.520;2022-07-23T05:08:25;97247.73;;;28.17;49.23
43480;BME280;29067;35.492;-97.520;2022-07-23T05:10:52;97250.10;;;27.57;50.40
43480;BME280;29067;35.492;-97.520;2022-07-23T05:13:20;97254.05;;;27.52;49.56
43480;BME280;29067;35.492;-97.520;2022-07-23T05:15:48;97259.01;;;27.06;50.33
43480;BME280;29067;35.492;-97.520;2022-07-23T05:18:16;97264.08;;;26.73;51.97
43480;BME280;29067;35.492;-97.520;2022-07-23T05:20:44;97269.02;;;26.09;53.11
43480;BME280;29067;35.492;-97.520;2022-07-23T05:23:12;97263.64;;;27.25;50.89
43480;BME280;29067;35.492;-97.520;2022-07-23T05:25:40;97259.65;;;27.26;50.15
43480;BME280;29067;35.492;-97.520;2022-07-23T05:28:08;97260.84;;;26.92;51.49
43480;BME280;29067;35.492;-97.520;2022-07-23T05:30:36;97258.75;;;26.87;51.62
43480;BME280;29067;35.492;-97.520;2022-07-23T05:33:04;97261.95;;;26.04;52.99
43480;BME280;29067;35.492;-97.520;2022-07-23T05:35:31;97258.42;;;26.67;52.21
43480;BME280;29067;35.492;-97.520;2022-07-23T05:37:59;97254.52;;;27.67;49.73
43480;BME280;29067;35.492;-97.520;2022-07-23T05:40:27;97260.07;;;26.66;52.06
43480;BME280;29067;35.492;-97.520;2022-07-23T05:42:55;97262.77;;;26.87;51.53
43480;BME280;29067;35.492;-97.520;2022-07-23T05:45:23;97260.67;;;27.64;50.12
43480;BME280;29067;35.492;-97.520;2022-07-23T05:47:50;97264.86;;;26.99;51.35
43480;BME280;29067;35.492;-97.520;2022-07-23T05:50:18;97270.88;;;26.70;51.23
43480;BME280;29067;35.492;-97.520;2022-07-23T05:52:46;97273.39;;;27.11;50.70
43480;BME280;29067;35.492;-97.520;2022-07-23T05:55:13;97277.72;;;27.18;51.27
43480;BME280;29067;35.492;-97.520;2022-07-23T05:57:41;97282.23;;;26.91;52.71
43480;BME280;29067;35.492;-97.520;2022-07-23T06:00:10;97284.34;;;25.84;55.37
43480;BME280;29067;35.492;-97.520;2022-07-23T06:02:39;97289.76;;;25.92;54.06
43480;BME280;29067;35.492;-97.520;2022-07-23T06:05:08;97295.12;;;27.93;52.31
43480;BME280;29067;35.492;-97.520;2022-07-23T06:07:35;97298.04;;;26.65;52.66
43480;BME280;29067;35.492;-97.520;2022-07-23T06:10:04;97302.35;;;27.51;51.39
43480;BME280;29067;35.492;-97.520;2022-07-23T06:12:32;97304.02;;;26.64;53.17
43480;BME280;29067;35.492;-97.520;2022-07-23T06:15:01;97303.36;;;27.10;53.10
43480;BME280;29067;35.492;-97.520;2022-07-23T06:17:29;97301.17;;;27.62;51.18
43480;BME280;29067;35.492;-97.520;2022-07-23T06:19:56;97298.95;;;27.81;50.18
43480;BME280;29067;35.492;-97.520;2022-07-23T06:22:25;97298.43;;;28.07;50.24
43480;BME280;29067;35.492;-97.520;2022-07-23T06:24:52;97299.35;;;27.23;51.83
43480;BME280;29067;35.492;-97.520;2022-07-23T06:27:20;97299.94;;;26.97;51.93
43480;BME280;29067;35.492;-97.520;2022-07-23T06:29:47;97302.94;;;26.29;53.31
43480;BME280;29067;35.492;-97.520;2022-07-23T06:32:15;97301.58;;;26.46;53.16
43480;BME280;29067;35.492;-97.520;2022-07-23T06:34:43;97298.20;;;26.28;54.75
43480;BME280;29067;35.492;-97.520;2022-07-23T06:37:11;97291.31;;;27.08;52.37
43480;BME280;29067;35.492;-97.520;2022-07-23T06:39:39;97296.46;;;27.99;50.50
43480;BME280;29067;35.492;-97.520;2022-07-23T06:42:07;97291.22;;;28.30;49.43
43480;BME280;29067;35.492;-97.520;2022-07-23T06:44:34;97296.36;;;27.76;50.75
43480;BME280;29067;35.492;-97.520;2022-07-23T06:47:02;97296.93;;;27.24;51.64
43480;BME280;29067;35.492;-97.520;2022-07-23T06:49:29;97295.31;;;27.81;51.22
43480;BME280;29067;35.492;-97.520;2022-07-23T06:51:57;97297.52;;;26.61;52.26
43480;BME280;29067;35.492;-97.520;2022-07-23T06:54:25;97292.83;;;27.29;50.06
43480;BME280;29067;35.492;-97.520;2022-07-23T06:56:52;97291.72;;;26.74;51.62
43480;BME280;29067;35.492;-97.520;2022-07-23T06:59:20;97285.63;;;26.75;50.95
43480;BME280;29067;35.492;-97.520;2022-07-23T07:01:47;97283.92;;;25.33;53.66
43480;BME280;29067;35.492;-97.520;2022-07-23T07:04:15;97287.62;;;26.61;51.28
43480;BME280;29067;35.492;-97.520;2022-07-23T07:06:42;97284.71;;;25.36;54.04
43480;BME280;29067;35.492;-97.520;2022-07-23T07:09:10;97282.69;;;26.41;51.65
43480;BME280;29067;35.492;-97.520;2022-07-23T07:11:37;97278.69;;;26.55;51.13
43480;BME280;29067;35.492;-97.520;2022-07-23T07:14:06;97277.63;;;25.66;53.01
43480;BME280;29067;35.492;-97.520;2022-07-23T07:16:34;97274.96;;;25.97;53.46
43480;BME280;29067;35.492;-97.520;2022-07-23T07:19:02;97272.61;;;26.67;51.12
43480;BME280;29067;35.492;-97.520;2022-07-23T07:21:30;97262.24;;;25.20;53.77
43480;BME280;29067;35.492;-97.520;2022-07-23T07:23:58;97257.73;;;25.09;52.53
43480;BME280;29067;35.492;-97.520;2022-07-23T07:26:26;97257.26;;;25.07;52.72
43480;BME280;29067;35.492;-97.520;2022-07-23T07:28:54;97256.16;;;26.60;50.18
43480;BME280;29067;35.492;-97.520;2022-07-23T07:31:21;97256.14;;;25.47;50.93
43480;BME280;29067;35.492;-97.520;2022-07-23T07:33:49;97259.56;;;25.32;51.70
43480;BME280;29067;35.492;-97.520;2022-07-23T07:36:17;97259.25;;;24.92;52.38
43480;BME280;29067;35.492;-97.520;2022-07-23T07:38:45;97255.76;;;25.59;50.92
43480;BME280;29067;35.492;-97.520;2022-07-23T07:41:13;97254.00;;;25.40;50.93
43480;BME280;29067;35.492;-97.520;2022-07-23T07:43:40;97257.57;;;25.78;50.25
43480;BME280;29067;35.492;-97.520;2022-07-23T07:46:08;97259.27;;;25.34;50.76
43480;BME280;29067;35.492;-97.520;2022-07-23T07:48:35;97252.68;;;26.13;49.44
43480;BME280;29067;35.492;-97.520;2022-07-23T07:51:04;97243.51;;;25.46;50.46
43480;BME280;29067;35.492;-97.520;2022-07-23T07:53:31;97232.75;;;24.88;52.33
43480;BME280;29067;35.492;-97.520;2022-07-23T07:55:59;97233.09;;;23.87;53.23
43480;BME280;29067;35.492;-97.520;2022-07-23T07:58:27;97228.65;;;24.35;52.86
43480;BME280;29067;35.492;-97.520;2022-07-23T08:00:55;97231.09;;;25.07;52.66
43480;BME280;29067;35.492;-97.520;2022-07-23T08:03:23;97229.28;;;24.80;52.95
43480;BME280;29067;35.492;-97.520;2022-07-23T08:05:50;97233.33;;;23.20;56.11
43480;BME280;29067;35.492;-97.520;2022-07-23T08:08:18;97231.44;;;24.96;54.89
43480;BME280;29067;35.492;-97.520;2022-07-23T08:10:45;97233.66;;;25.21;52.36
43480;BME280;29067;35.492;-97.520;2022-07-23T08:13:14;97239.71;;;24.18;54.12
43480;BME280;29067;35.492;-97.520;2022-07-23T08:15:43;97232.71;;;24.28;53.64
43480;BME280;29067;35.492;-97.520;2022-07-23T08:18:12;97226.93;;;25.51;51.57
43480;BME280;29067;35.492;-97.520;2022-07-23T08:20:40;97227.49;;;23.70;52.61
43480;BME280;29067;35.492;-97.520;2022-07-23T08:23:09;97220.75;;;25.03;52.48
43480;BME280;29067;35.492;-97.520;2022-07-23T08:25:38;97222.21;;;24.94;52.51
43480;BME280;29067;35.492;-97.520;2022-07-23T08:28:08;97216.95;;;24.90;51.90
43480;BME280;29067;35.492;-97.520;2022-07-23T08:30:37;97220.59;;;26.58;49.02
43480;BME280;29067;35.492;-97.520;2022-07-23T08:33:07;97225.30;;;26.10;49.09
43480;BME280;29067;35.492;-97.520;2022-07-23T08:35:36;97227.55;;;24.10;51.56
43480;BME280;29067;35.492;-97.520;2022-07-23T08:38:06;97225.06;;;24.75;51.44
43480;BME280;29067;35.492;-97.520;2022-07-23T08:40:37;97225.73;;;24.97;50.40
43480;BME280;29067;35.492;-97.520;2022-07-23T08:43:08;97229.59;;;26.55;48.28
43480;BME280;29067;35.492;-97.520;2022-07-23T08:45:37;97231.20;;;25.98;48.86
43480;BME280;29067;35.492;-97.520;2022-07-23T08:48:07;97232.28;;;25.75;48.60
43480;BME280;29067;35.492;-97.520;2022-07-23T08:50:36;97232.65;;;25.71;48.59
43480;BME280;29067;35.492;-97.520;2022-07-23T08:53:06;97230.19;;;24.91;49.68
43480;BME280;29067;35.492;-97.520;2022-07-23T08:55:34;97232.28;;;24.91;50.34
43480;BME280;29067;35.492;-97.520;2022-07-23T08:58:03;97230.24;;;25.30;49.71
43480;BME280;29067;35.492;-97.520;2022-07-23T09:00:31;97230.06;;;25.29;49.40
43480;BME280;29067;35.492;-97.520;2022-07-23T09:02:59;97234.30;;;24.25;51.28
43480;BME280;29067;35.492;-97.520;2022-07-23T09:05:27;97235.31;;;24.68;50.24
43480;BME280;29067;35.492;-97.520;2022-07-23T09:08:13;97236.25;;;24.43;51.56
43480;BME280;29067;35.492;-97.520;2022-07-23T09:10:45;97231.47;;;25.14;50.31
43480;BME280;29067;35.492;-97.520;2022-07-23T09:13:30;97239.40;;;25.01;50.60
43480;BME280;29067;35.492;-97.520;2022-07-23T09:16:00;97243.89;;;24.38;52.00
43480;BME280;29067;35.492;-97.520;2022-07-23T09:18:31;97243.28;;;25.66;49.62
43480;BME280;29067;35.492;-97.520;2022-07-23T09:21:09;97245.51;;;25.28;49.96
43480;BME280;29067;35.492;-97.520;2022-07-23T09:23:39;97244.13;;;25.08;49.65
43480;BME280;29067;35.492;-97.520;2022-07-23T09:26:26;97247.58;;;24.09;50.59
43480;BME280;29067;35.492;-97.520;2022-07-23T09:28:56;97248.75;;;26.08;48.68
43480;BME280;29067;35.492;-97.520;2022-07-23T09:31:27;97248.29;;;25.94;47.78
43480;BME280;29067;35.492;-97.520;2022-07-23T09:34:08;97249.07;;;26.10;47.52
43480;BME280;29067;35.492;-97.520;2022-07-23T09:36:36;97254.98;;;25.10;48.22
43480;BME280;29067;35.492;-97.520;2022-07-23T09:39:04;97252.47;;;24.75;48.84
43480;BME280;29067;35.492;-97.520;2022-07-23T09:41:37;97252.51;;;24.91;49.22
43480;BME280;29067;35.492;-97.520;2022-07-23T09:44:12;97255.33;;;25.17;48.36
43480;BME280;29067;35.492;-97.520;2022-07-23T09:46:40;97257.38;;;24.69;50.68
43480;BME280;29067;35.492;-97.520;2022-07-23T09:49:13;97260.88;;;24.85;48.82
43480;BME280;29067;35.492;-97.520;2022-07-23T09:51:50;97258.67;;;24.92;49.69
43480;BME280;29067;35.492;-97.520;2022-07-23T09:54:26;97259.47;;;24.59;50.38
43480;BME280;29067;35.492;-97.520;2022-07-23T09:56:55;97258.17;;;25.60;48.80
43480;BME280;29067;35.492;-97.520;2022-07-23T09:59:26;97260.24;;;24.65;50.24
43480;BME280;29067;35.492;-97.520;2022-07-23T10:01:55;97256.95;;;24.59;50.27
43480;BME280;29067;35.492;-97.520;2022-07-23T10:04:24;97258.31;;;25.77;48.67
43480;BME280;29067;35.492;-97.520;2022-07-23T10:06:54;97261.46;;;25.90;47.49
43480;BME280;29067;35.492;-97.520;2022-07-23T10:09:25;97263.07;;;25.08;49.28
43480;BME280;29067;35.492;-97.520;2022-07-23T10:11:56;97263.31;;;24.72;50.01
43480;BME280;29067;35.492;-97.520;2022-07-23T10:14:26;97266.66;;;25.23;50.34
43480;BME280;29067;35.492;-97.520;2022-07-23T10:16:54;97261.12;;;25.11;50.67
43480;BME280;29067;35.492;-97.520;2022-07-23T10:19:23;97263.94;;;25.11;50.94
43480;BME280;29067;35.492;-97.520;2022-07-23T10:21:54;97259.38;;;24.26;51.61
43480;BME280;29067;35.492;-97.520;2022-07-23T10:24:34;97262.22;;;24.46;51.91
43480;BME280;29067;35.492;-97.520;2022-07-23T10:27:25;97263.64;;;24.36;52.20
43480;BME280;29067;35.492;-97.520;2022-07-23T10:30:03;97263.31;;;24.02;53.04
43480;BME280;29067;35.492;-97.520;2022-07-23T10:32:40;97266.24;;;23.39;54.55
43480;BME280;29067;35.492;-97.520;2022-07-23T10:35:18;97257.24;;;25.47;50.53
43480;BME280;29067;35.492;-97.520;2022-07-23T10:37:49;97256.55;;;24.18;53.02
43480;BME280;29067;35.492;-97.520;2022-07-23T10:40:21;97253.66;;;25.11;50.44
43480;BME280;29067;35.492;-97.520;2022-07-23T10:42:51;97250.04;;;24.65;52.43
43480;BME280;29067;35.492;-97.520;2022-07-23T10:45:26;97245.96;;;24.34;51.75
43480;BME280;29067;35.492;-97.520;2022-07-23T10:47:55;97246.29;;;24.39;52.69
43480;BME280;29067;35.492;-97.520;2022-07-23T10:50:24;97246.08;;;25.77;50.15
43480;BME280;29067;35.492;-97.520;2022-07-23T10:53:24;97250.18;;;24.33;52.78
43480;BME280;29067;35.492;-97.520;2022-07-23T10:55:53;97247.43;;;24.63;52.26
43480;BME280;29067;35.492;-97.520;2022-07-23T10:58:23;97248.90;;;24.34;53.03
43480;BME280;29067;35.492;-97.520;2022-07-23T11:03:00;97258.73;;;24.11;54.64
43480;BME280;29067;35.492;-97.520;2022-07-23T11:05:41;97259.02;;;23.08;55.98
43480;BME280;29067;35.492;-97.520;2022-07-23T11:08:13;97256.98;;;23.60;53.59
43480;BME280;29067;35.492;-97.520;2022-07-23T11:10:43;97263.07;;;25.06;51.70
43480;BME280;29067;35.492;-97.520;2022-07-23T11:14:58;97265.58;;;25.05;51.72
43480;BME280;29067;35.492;-97.520;2022-07-23T11:17:28;97270.62;;;25.57;50.03
43480;BME280;29067;35.492;-97.520;2022-07-23T11:20:28;97275.61;;;25.13;49.79
43480;BME280;29067;35.492;-97.520;2022-07-23T11:22:57;97279.08;;;25.41;50.93
43480;BME280;29067;35.492;-97.520;2022-07-23T11:25:35;97276.85;;;24.98;51.78
43480;BME280;29067;35.492;-97.520;2022-07-23T11:28:10;97277.72;;;24.75;51.40
43480;BME280;29067;35.492;-97.520;2022-07-23T11:30:41;97275.93;;;24.35;51.94
43480;BME280;29067;35.492;-97.520;2022-07-23T11:33:20;97282.13;;;25.01;52.17
43480;BME280;29067;35.492;-97.520;2022-07-23T11:36:01;97285.12;;;24.37;51.59
43480;BME280;29067;35.492;-97.520;2022-07-23T11:38:31;97287.76;;;24.52;52.77
43480;BME280;29067;35.492;-97.520;2022-07-23T11:40:59;97290.79;;;24.27;53.40
43480;BME280;29067;35.492;-97.520;2022-07-23T11:43:27;97290.65;;;24.16;53.78
43480;BME280;29067;35.492;-97.520;2022-07-23T11:45:58;97288.60;;;25.04;52.02
43480;BME280;29067;35.492;-97.520;2022-07-23T11:48:28;97291.65;;;23.59;54.47
43480;BME280;29067;35.492;-97.520;2022-07-23T11:50:57;97295.09;;;24.71;53.63
43480;BME280;29067;35.492;-97.520;2022-07-23T11:53:26;97299.85;;;23.35;56.35
43480;BME280;29067;35.492;-97.520;2022-07-23T11:55:57;97294.58;;;24.78;53.37
43480;BME280;29067;35.492;-97.520;2022-07-23T11:58:30;97296.18;;;22.94;56.14
43480;BME280;29067;35.492;-97.520;2022-07-23T12:00:58;97297.31;;;24.23;54.48
43480;BME280;29067;35.492;-97.520;2022-07-23T12:03:25;97294.20;;;23.13;55.88
43480;BME280;29067;35.492;-97.520;2022-07-23T12:05:57;97291.84;;;24.71;55.03
43480;BME280;29067;35.492;-97.520;2022-07-23T12:08:25;97293.40;;;24.92;54.40
43480;BME280;29067;35.492;-97.520;2022-07-23T12:10:53;97292.16;;;24.69;52.62
43480;BME280;29067;35.492;-97.520;2022-07-23T12:13:23;97289.47;;;24.54;53.17
43480;BME280;29067;35.492;-97.520;2022-07-23T12:15:53;97289.93;;;24.22;53.92
43480;BME280;29067;35.492;-97.520;2022-07-23T12:18:22;97291.55;;;23.84;53.99
43480;BME280;29067;35.492;-97.520;2022-07-23T12:20:52;97294.10;;;22.33;57.98
43480;BME280;29067;35.492;-97.520;2022-07-23T12:23:22;97289.63;;;22.95;57.10
43480;BME280;29067;35.492;-97.520;2022-07-23T12:25:51;97295.72;;;22.61;60.08
43480;BME280;29067;35.492;-97.520;2022-07-23T12:28:20;97295.74;;;23.10;58.42
43480;BME280;29067;35.492;-97.520;2022-07-23T12:30:49;97300.50;;;22.16;60.09
43480;BME280;29067;35.492;-97.520;2022-07-23T12:33:23;97298.22;;;22.63;58.33
43480;BME280;29067;35.492;-97.520;2022-07-23T12:35:53;97297.90;;;22.87;59.14
43480;BME280;29067;35.492;-97.520;2022-07-23T12:38:23;97298.22;;;23.53;57.45
43480;BME280;29067;35.492;-97.520;2022-07-23T12:40:53;97298.10;;;23.03;59.01
43480;BME280;29067;35.492;-97.520;2022-07-23T12:43:22;97300.35;;;22.79;58.54
43480;BME280;29067;35.492;-97.520;2022-07-23T12:45:52;97303.66;;;24.24;57.14
43480;BME280;29067;35.492;-97.520;2022-07-23T12:48:23;97308.79;;;22.63;60.46
43480;BME280;29067;35.492;-97.520;2022-07-23T12:50:55;97306.27;;;22.99;60.71
43480;BME280;29067;35.492;-97.520;2022-07-23T12:53:26;97306.18;;;23.95;58.07
43480;BME280;29067;35.492;-97.520;2022-07-23T12:56:00;97313.45;;;23.63;57.07